Time;durP1;ratioP1;P1;durP2;ratioP2;P2;SDS_P1;SDS_P2;PMS_P1;PMS_P2;Temp;Humidity;BMP_temperature;BMP_pressure;BME280_temperature;BME280_humidity;BME280_pressure;Samples;Min_cycle;Max_cycle;Signal;HPM_P1;HPM_P2
2022/08/05 00:01:42;;;;;;;;;;;;;;;15.83;100.00;99406.41;5067763;28;20272;-83
2022/08/05 00:04:09;;;;;;;;;;;;;;;15.85;100.00;99409.56;5106352;28;20014;-83
2022/08/05 00:06:36;;;;;;;;;;;;;;;15.88;100.00;99414.31;5084680;28;19931;-83
2022/08/05 00:09:04;;;;;;;;;;;;;;;15.98;100.00;99407.53;5093726;28;19924;-83
2022/08/05 00:11:31;;;;;;;;;;;;;;;15.87;100.00;99401.44;5073327;28;19924;-83
2022/08/05 00:13:58;;;;;;;;;;;;;;;15.73;100.00;99396.28;5073470;28;19926;-83
2022/08/05 00:16:25;;;;;;;;;;;;;;;15.74;100.00;99392.22;5072539;28;20360;-83
2022/08/05 00:18:52;;;;;;;;;;;;;;;15.63;100.00;99390.97;5073673;28;19924;-83
2022/08/05 00:21:19;;;;;;;;;;;;;;;16.10;100.00;99400.28;5055715;28;20473;-83
2022/08/05 00:23:46;;;;;;;;;;;;;;;15.61;100.00;99399.06;5072956;28;20267;-83
2022/08/05 00:26:14;;;;;;;;;;;;;;;16.08;100.00;99392.28;5073295;28;19928;-83
2022/08/05 00:28:41;;;;;;;;;;;;;;;15.92;100.00;99409.34;5076386;28;19924;-83
2022/08/05 00:31:08;;;;;;;;;;;;;;;15.91;100.00;99407.78;5076102;28;19924;-83
2022/08/05 00:33:35;;;;;;;;;;;;;;;16.48;100.00;99405.91;5077033;28;19931;-83
2022/08/05 00:36:04;;;;;;;;;;;;;;;15.85;100.00;99415.22;5075976;28;19932;-83
2022/08/05 00:38:31;;;;;;;;;;;;;;;16.18;100.00;99410.91;5075849;28;19925;-82
2022/08/05 00:40:59;;;;;;;;;;;;;;;16.15;100.00;99414.63;5059904;28;19928;-83
2022/08/05 00:43:27;;;;;;;;;;;;;;;16.08;100.00;99411.25;5075786;28;20030;-83
2022/08/05 00:45:54;;;;;;;;;;;;;;;15.86;100.00;99415.97;5043154;28;20429;-83
2022/08/05 00:48:22;;;;;;;;;;;;;;;15.72;100.00;99414.38;5075588;28;20245;-83
2022/08/05 00:50:50;;;;;;;;;;;;;;;15.98;100.00;99429.28;5076163;28;19924;-82
2022/08/05 00:53:19;;;;;;;;;;;;;;;15.75;100.00;99421.94;5076170;28;19931;-83
2022/08/05 00:55:46;;;;;;;;;;;;;;;15.80;100.00;99418.56;5096144;28;20068;-82
2022/08/05 00:58:15;;;;;;;;;;;;;;;15.90;100.00;99420.25;5078953;28;19935;-82
2022/08/05 01:00:43;;;;;;;;;;;;;;;15.74;100.00;99420.38;5095641;28;19924;-82
2022/08/05 01:03:11;;;;;;;;;;;;;;;15.82;100.00;99413.28;5075250;28;19970;-82
2022/08/05 01:05:40;;;;;;;;;;;;;;;15.71;100.00;99418.47;5083741;28;19962;-82
2022/08/05 01:08:08;;;;;;;;;;;;;;;15.82;100.00;99416.09;5069475;28;19931;-82
2022/08/05 01:10:45;;;;;;;;;;;;;;;16.05;100.00;99429.06;5089378;28;19931;-83
2022/08/05 01:13:26;;;;;;;;;;;;;;;16.20;100.00;99428.16;5096848;28;19932;-83
2022/08/05 01:15:57;;;;;;;;;;;;;;;15.88;100.00;99428.41;5096359;28;20019;-84
2022/08/05 01:18:27;;;;;;;;;;;;;;;15.95;100.00;99418.91;5092108;28;20179;-83
2022/08/05 01:21:06;;;;;;;;;;;;;;;16.14;100.00;99415.88;5083414;28;19928;-83
2022/08/05 01:23:48;;;;;;;;;;;;;;;15.99;100.00;99417.53;5056673;28;19975;-83
2022/08/05 01:26:15;;;;;;;;;;;;;;;15.73;100.00;99420.81;5064290;28;19950;-83
2022/08/05 01:28:44;;;;;;;;;;;;;;;16.19;100.00;99411.69;5078523;28;19931;-83
2022/08/05 01:31:15;;;;;;;;;;;;;;;15.89;100.00;99421.50;5094594;28;19931;-83
2022/08/05 01:33:48;;;;;;;;;;;;;;;16.29;100.00;99416.19;5096585;28;20315;-83
2022/08/05 01:36:17;;;;;;;;;;;;;;;16.47;100.00;99422.03;5071330;28;19924;-83
2022/08/05 01:38:46;;;;;;;;;;;;;;;15.86;100.00;99415.97;5068160;28;19935;-83
2022/08/05 01:41:15;;;;;;;;;;;;;;;16.08;100.00;99416.88;5075031;28;20348;-82
2022/08/05 01:43:42;;;;;;;;;;;;;;;16.07;100.00;99421.72;5091768;28;20360;-83
2022/08/05 01:46:09;;;;;;;;;;;;;;;16.32;100.00;99417.28;5079696;28;19925;-83
2022/08/05 01:48:37;;;;;;;;;;;;;;;16.10;100.00;99412.38;5073938;28;19924;-83
2022/08/05 01:51:05;;;;;;;;;;;;;;;16.11;100.00;99399.84;5076667;28;19970;-83
2022/08/05 01:53:34;;;;;;;;;;;;;;;15.67;100.00;99417.00;5074372;28;19924;-83
2022/08/05 01:56:02;;;;;;;;;;;;;;;16.31;100.00;99407.28;5108494;28;19960;-83
2022/08/05 01:58:29;;;;;;;;;;;;;;;16.57;100.00;99403.19;5085170;28;19924;-83
2022/08/05 02:00:58;;;;;;;;;;;;;;;15.90;100.00;99406.16;5095586;28;20324;-83
2022/08/05 02:03:37;;;;;;;;;;;;;;;16.08;100.00;99408.44;5077488;28;20375;-83
2022/08/05 02:06:09;;;;;;;;;;;;;;;15.76;100.00;99408.66;5077746;28;19985;-83
2022/08/05 02:08:38;;;;;;;;;;;;;;;15.92;100.00;99395.25;5077387;28;20409;-83
2022/08/05 02:11:09;;;;;;;;;;;;;;;15.80;100.00;99398.84;5077537;28;20022;-83
2022/08/05 02:13:40;;;;;;;;;;;;;;;15.89;100.00;99404.59;5091221;28;20291;-82
2022/08/05 02:16:11;;;;;;;;;;;;;;;15.87;100.00;99404.25;5097413;28;20372;-83
2022/08/05 02:18:48;;;;;;;;;;;;;;;15.79;100.00;99399.31;5093847;28;20023;-83
2022/08/05 02:21:17;;;;;;;;;;;;;;;15.74;100.00;99397.03;5092181;28;19959;-83
2022/08/05 02:23:48;;;;;;;;;;;;;;;15.65;100.00;99394.09;5077422;28;19927;-83
2022/08/05 02:26:19;;;;;;;;;;;;;;;15.59;100.00;99398.72;5076719;28;20023;-83
2022/08/05 02:28:47;;;;;;;;;;;;;;;15.57;100.00;99399.16;5094092;28;19931;-83
2022/08/05 02:31:20;;;;;;;;;;;;;;;15.57;100.00;99401.22;5089370;28;19979;-83
2022/08/05 02:33:51;;;;;;;;;;;;;;;14.95;100.00;99402.59;5076157;28;19925;-83
2022/08/05 02:36:21;;;;;;;;;;;;;;;15.28;100.00;99408.91;5093938;28;19985;-83
2022/08/05 02:38:48;;;;;;;;;;;;;;;15.98;100.00;99396.25;5061170;28;20007;-83
2022/08/05 02:41:16;;;;;;;;;;;;;;;15.82;100.00;99396.38;5068964;28;19977;-83
2022/08/05 02:43:45;;;;;;;;;;;;;;;15.69;100.00;99398.38;5095170;28;19924;-83
2022/08/05 02:46:14;;;;;;;;;;;;;;;15.47;100.00;99400.28;5084959;28;19928;-83
2022/08/05 02:48:43;;;;;;;;;;;;;;;15.42;100.00;99406.47;5074377;28;19971;-83
2022/08/05 02:51:11;;;;;;;;;;;;;;;15.24;100.00;99406.19;5073872;28;19925;-82
2022/08/05 02:53:38;;;;;;;;;;;;;;;15.21;100.00;99409.09;5073398;28;19931;-82
2022/08/05 02:56:07;;;;;;;;;;;;;;;15.31;100.00;99399.56;5091299;28;19935;-83
2022/08/05 02:58:37;;;;;;;;;;;;;;;15.50;100.00;99402.22;5094558;28;20018;-83
2022/08/05 03:01:05;;;;;;;;;;;;;;;15.09;100.00;99396.56;5074933;28;20005;-83
2022/08/05 03:03:34;;;;;;;;;;;;;;;15.47;100.00;99400.28;5040304;28;19955;-83
2022/08/05 03:06:02;;;;;;;;;;;;;;;15.63;100.00;99407.88;5050723;28;19931;-83
2022/08/05 03:08:29;;;;;;;;;;;;;;;15.91;100.00;99409.78;5088663;28;19925;-83
2022/08/05 03:10:57;;;;;;;;;;;;;;;16.06;100.00;99408.09;5089789;28;19929;-82
2022/08/05 03:13:24;;;;;;;;;;;;;;;15.77;100.00;99419.47;5089778;28;19929;-83
2022/08/05 03:15:51;;;;;;;;;;;;;;;15.48;100.00;99429.25;5074427;28;20355;-83
2022/08/05 03:18:18;;;;;;;;;;;;;;;15.58;100.00;99428.13;5052867;28;19931;-83
2022/08/05 03:20:46;;;;;;;;;;;;;;;15.25;100.00;99435.91;5053210;28;19932;-83
2022/08/05 03:23:13;;;;;;;;;;;;;;;15.71;100.00;99443.00;5091493;28;20015;-83
2022/08/05 03:25:40;;;;;;;;;;;;;;;15.90;100.00;99439.97;5093649;28;20386;-83
2022/08/05 03:28:09;;;;;;;;;;;;;;;16.37;100.00;99439.28;5057566;28;19967;-83
2022/08/05 03:30:36;;;;;;;;;;;;;;;16.22;100.00;99436.94;5072738;28;19931;-83
2022/08/05 03:33:04;;;;;;;;;;;;;;;16.39;100.00;99436.81;5074318;28;20383;-83
2022/08/05 03:35:32;;;;;;;;;;;;;;;16.53;100.00;99442.00;5076197;28;20073;-83
2022/08/05 03:37:59;;;;;;;;;;;;;;;16.27;100.00;99440.44;5092789;28;19924;-83
2022/08/05 03:40:27;;;;;;;;;;;;;;;16.12;100.00;99440.91;5053952;28;19932;-83
2022/08/05 03:42:54;;;;;;;;;;;;;;;16.12;100.00;99435.25;5020096;28;20005;-83
2022/08/05 03:45:21;;;;;;;;;;;;;;;16.19;100.00;99440.66;5036988;28;20280;-83
2022/08/05 03:47:50;;;;;;;;;;;;;;;15.99;100.00;99447.78;5054099;28;19932;-83
2022/08/05 03:50:18;;;;;;;;;;;;;;;15.82;100.00;99443.47;5045579;28;19924;-83
2022/08/05 03:53:06;;;;;;;;;;;;;;;15.39;100.00;99443.97;5085634;28;19928;-83
2022/08/05 03:55:36;;;;;;;;;;;;;;;15.34;100.00;99447.31;5106308;28;20272;-82
2022/08/05 03:58:04;;;;;;;;;;;;;;;15.87;100.00;99438.06;5054484;28;19932;-83
2022/08/05 04:00:31;;;;;;;;;;;;;;;16.20;100.00;99450.72;5092751;28;19967;-83
2022/08/05 04:03:01;;;;;;;;;;;;;;;15.82;100.00;99449.91;5097904;28;19924;-83
2022/08/05 04:05:30;;;;;;;;;;;;;;;15.87;100.00;99446.53;5080075;28;19928;-83
2022/08/05 04:07:58;;;;;;;;;;;;;;;15.75;100.00;99446.53;5096830;28;19928;-83
2022/08/05 04:10:26;;;;;;;;;;;;;;;15.64;100.00;99460.94;5081221;28;19925;-83
2022/08/05 04:12:55;;;;;;;;;;;;;;;15.71;100.00;99465.56;5097871;28;19977;-83
2022/08/05 04:15:22;;;;;;;;;;;;;;;15.68;100.00;99467.25;5060596;28;19924;-83
2022/08/05 04:17:49;;;;;;;;;;;;;;;15.84;100.00;99457.91;5076115;28;20322;-83
2022/08/05 04:20:25;;;;;;;;;;;;;;;15.87;100.00;99466.25;5077677;28;20363;-83
2022/08/05 04:22:52;;;;;;;;;;;;;;;15.90;100.00;99462.53;5084422;28;19963;-83
2022/08/05 04:25:19;;;;;;;;;;;;;;;16.32;100.00;99453.94;5089595;28;20507;-83
2022/08/05 04:27:47;;;;;;;;;;;;;;;16.59;100.00;99462.75;5057838;28;20364;-83
2022/08/05 04:30:14;;;;;;;;;;;;;;;16.66;100.00;99470.97;5079823;28;20276;-83
2022/08/05 04:32:41;;;;;;;;;;;;;;;16.76;100.00;99462.16;5093780;28;19963;-83
2022/08/05 04:35:08;;;;;;;;;;;;;;;16.54;100.00;99458.47;5076389;28;19929;-83
2022/08/05 04:37:36;;;;;;;;;;;;;;;16.73;100.00;99456.63;5077107;28;19929;-83
2022/08/05 04:40:03;;;;;;;;;;;;;;;16.90;100.00;99463.69;5104501;28;19924;-82
2022/08/05 04:42:30;;;;;;;;;;;;;;;16.80;100.00;99462.00;5092853;28;20287;-82
2022/08/05 04:44:57;;;;;;;;;;;;;;;16.40;100.00;99460.94;5089084;28;19925;-83
2022/08/05 04:47:24;;;;;;;;;;;;;;;16.68;100.00;99460.81;5055937;28;19932;-83
2022/08/05 04:49:51;;;;;;;;;;;;;;;16.40;100.00;99460.94;5070845;28;20007;-83
2022/08/05 04:52:18;;;;;;;;;;;;;;;16.54;100.00;99450.00;5075777;28;19931;-83
2022/08/05 04:54:45;;;;;;;;;;;;;;;16.42;100.00;99450.00;5077077;28;19928;-83
2022/08/05 04:57:13;;;;;;;;;;;;;;;16.34;100.00;99448.66;5100622;28;19995;-83
2022/08/05 04:59:40;;;;;;;;;;;;;;;16.73;100.00;99457.41;5055760;28;20039;-83
2022/08/05 05:02:07;;;;;;;;;;;;;;;16.50;100.00;99459.81;5066168;28;19928;-83
2022/08/05 05:04:34;;;;;;;;;;;;;;;15.89;100.00;99455.31;5077205;28;19989;-83
2022/08/05 05:07:01;;;;;;;;;;;;;;;16.39;100.00;99457.31;5095626;28;19924;-83
2022/08/05 05:09:28;;;;;;;;;;;;;;;16.76;100.00;99469.81;5092017;28;20291;-83
2022/08/05 05:11:55;;;;;;;;;;;;;;;16.31;100.00;99469.31;5076525;28;19924;-83
2022/08/05 05:14:24;;;;;;;;;;;;;;;16.62;100.00;99464.66;5093239;28;20348;-83
2022/08/05 05:16:52;;;;;;;;;;;;;;;17.04;100.00;99471.66;5076802;28;19928;-83
2022/08/05 05:19:19;;;;;;;;;;;;;;;17.12;100.00;99481.44;5075499;28;20295;-83
2022/08/05 05:21:46;;;;;;;;;;;;;;;16.92;100.00;99478.13;5082134;28;20019;-83
2022/08/05 05:24:13;;;;;;;;;;;;;;;16.54;100.00;99483.06;5086881;28;19929;-83
2022/08/05 05:26:42;;;;;;;;;;;;;;;16.66;100.00;99496.38;5108342;28;19924;-83
2022/08/05 05:29:09;;;;;;;;;;;;;;;16.65;100.00;99489.13;5076660;28;19924;-83
2022/08/05 05:31:36;;;;;;;;;;;;;;;16.63;100.00;99491.63;5058743;28;19931;-82
2022/08/05 05:34:02;;;;;;;;;;;;;;;15.65;100.00;99506.78;5076717;28;19923;-83
2022/08/05 05:36:29;;;;;;;;;;;;;;;15.20;100.00;99509.66;5078878;28;19955;-83
2022/08/05 05:38:57;;;;;;;;;;;;;;;15.26;100.00;99513.50;5078760;28;19928;-83
2022/08/05 05:41:25;;;;;;;;;;;;;;;15.54;100.00;99518.34;5091304;28;19925;-82
2022/08/05 05:43:52;;;;;;;;;;;;;;;15.67;100.00;99527.66;5058182;28;19946;-82
2022/08/05 05:46:19;;;;;;;;;;;;;;;16.11;100.00;99529.50;5077304;28;19925;-82
2022/08/05 05:48:51;;;;;;;;;;;;;;;15.65;100.00;99541.38;5047165;28;19968;-82
2022/08/05 05:51:28;;;;;;;;;;;;;;;15.29;100.00;99546.41;5094172;28;19955;-83
2022/08/05 05:53:56;;;;;;;;;;;;;;;15.53;100.00;99550.59;5094065;28;19930;-83
2022/08/05 05:56:29;;;;;;;;;;;;;;;15.15;100.00;99558.03;5046525;28;19924;-84
2022/08/05 05:58:56;;;;;;;;;;;;;;;14.90;100.00;99557.09;5055558;28;19946;-87
2022/08/05 06:01:23;;;;;;;;;;;;;;;15.28;100.00;99561.69;5054136;28;19924;-84
2022/08/05 06:03:50;;;;;;;;;;;;;;;14.88;100.00;99568.81;5055318;28;19931;-82
2022/08/05 06:06:18;;;;;;;;;;;;;;;15.16;100.00;99570.88;5054180;28;19928;-83
2022/08/05 06:08:45;;;;;;;;;;;;;;;15.75;100.00;99571.25;5087947;28;19932;-83
2022/08/05 06:11:12;;;;;;;;;;;;;;;14.84;100.00;99562.47;5071099;28;19931;-83
2022/08/05 06:13:39;;;;;;;;;;;;;;;14.46;100.00;99561.41;5083959;28;19956;-83
2022/08/05 06:16:06;;;;;;;;;;;;;;;15.34;100.00;99557.09;5057535;28;19928;-83
2022/08/05 06:18:34;;;;;;;;;;;;;;;15.73;100.00;99554.03;5062166;28;20330;-83
2022/08/05 06:21:01;;;;;;;;;;;;;;;15.73;100.00;99556.84;5070216;28;20376;-84
2022/08/05 06:23:28;;;;;;;;;;;;;;;16.15;100.00;99560.41;5054122;28;19951;-83
2022/08/05 06:25:55;;;;;;;;;;;;;;;15.67;100.00;99560.66;5054983;28;19925;-84
2022/08/05 06:28:22;;;;;;;;;;;;;;;15.10;100.00;99566.25;5060017;28;19940;-85
2022/08/05 06:30:49;;;;;;;;;;;;;;;14.83;100.00;99572.13;5090722;28;20606;-85
2022/08/05 06:33:16;;;;;;;;;;;;;;;14.70;100.00;99576.88;5084613;28;19925;-88
2022/08/05 06:35:43;;;;;;;;;;;;;;;15.27;100.00;99587.47;5069804;28;20073;-83
2022/08/05 06:38:10;;;;;;;;;;;;;;;16.04;100.00;99576.84;5036811;28;20344;-84
2022/08/05 06:40:38;;;;;;;;;;;;;;;16.54;100.00;99576.16;5070198;28;19947;-88
2022/08/05 06:43:05;;;;;;;;;;;;;;;16.77;100.00;99570.16;5044024;28;19931;-85
2022/08/05 06:45:32;;;;;;;;;;;;;;;16.82;100.00;99578.06;5060183;28;19931;-85
2022/08/05 06:48:00;;;;;;;;;;;;;;;16.97;100.00;99579.16;5076832;28;20022;-87
2022/08/05 06:50:27;;;;;;;;;;;;;;;17.04;100.00;99578.94;5093353;28;20298;-84
2022/08/05 06:52:54;;;;;;;;;;;;;;;17.64;100.00;99571.97;5093329;28;19924;-87
2022/08/05 06:55:21;;;;;;;;;;;;;;;17.47;100.00;99573.41;5077472;28;19930;-89
2022/08/05 06:57:48;;;;;;;;;;;;;;;17.35;100.00;99583.47;5076613;28;19928;-85
2022/08/05 07:00:17;;;;;;;;;;;;;;;16.74;100.00;99579.53;5093203;28;20389;-86
2022/08/05 07:02:45;;;;;;;;;;;;;;;16.52;100.00;99578.63;5076155;28;20390;-86
2022/08/05 07:05:13;;;;;;;;;;;;;;;16.19;100.00;99575.97;5089452;28;19947;-85
2022/08/05 07:07:41;;;;;;;;;;;;;;;16.37;100.00;99578.28;5076225;28;19928;-86
2022/08/05 07:10:08;;;;;;;;;;;;;;;16.67;100.00;99582.59;5076411;28;20001;-85
2022/08/05 07:18:06;;;;;;;;;;;;;;;16.89;100.00;99583.47;5075952;28;20074;-85
2022/08/05 07:20:33;;;;;;;;;;;;;;;16.95;100.00;99585.25;5059402;28;20010;-85
2022/08/05 07:23:00;;;;;;;;;;;;;;;16.96;100.00;99591.69;5075970;28;19924;-86
2022/08/05 07:25:28;;;;;;;;;;;;;;;18.69;100.00;99584.88;5059351;28;20371;-87
2022/08/05 07:27:55;;;;;;;;;;;;;;;19.77;100.00;99581.47;5076218;28;19931;-91
2022/08/05 07:30:25;;;;;;;;;;;;;;;21.26;100.00;99568.22;5094173;28;19961;-86
2022/08/05 07:32:56;;;;;;;;;;;;;;;22.02;100.00;99570.28;5092798;28;20279;-87
2022/08/05 07:35:23;;;;;;;;;;;;;;;22.64;100.00;99568.06;5075998;28;19924;-86
2022/08/05 07:37:50;;;;;;;;;;;;;;;22.59;100.00;99572.38;5074375;28;19924;-84
2022/08/05 07:40:17;;;;;;;;;;;;;;;23.07;100.00;99567.94;5051888;28;20379;-86
2022/08/05 07:42:45;;;;;;;;;;;;;;;23.20;100.00;99558.25;5052658;28;19971;-89
2022/08/05 07:45:12;;;;;;;;;;;;;;;23.48;100.00;99562.31;5053255;28;19931;-87
2022/08/05 07:47:39;;;;;;;;;;;;;;;22.97;100.00;99560.00;5053279;28;20367;-87
2022/08/05 07:50:07;;;;;;;;;;;;;;;21.78;100.00;99564.66;5070960;28;19925;-87
2022/08/05 07:52:42;;;;;;;;;;;;;;;20.42;100.00;99573.19;5069321;28;19924;-85
2022/08/05 07:55:09;;;;;;;;;;;;;;;19.50;100.00;99590.78;5070549;28;20785;-86
2022/08/05 07:57:36;;;;;;;;;;;;;;;18.75;100.00;99588.66;5069951;28;19924;-88
2022/08/05 08:00:04;;;;;;;;;;;;;;;17.52;100.00;99592.59;5069293;28;19924;-85
2022/08/05 08:02:37;;;;;;;;;;;;;;;18.08;100.00;99606.69;5070318;28;20118;-86
2022/08/05 08:05:04;;;;;;;;;;;;;;;18.97;100.00;99612.03;5086101;28;20061;-90
2022/08/05 08:07:32;;;;;;;;;;;;;;;19.93;100.00;99612.34;5069727;28;19924;-92
2022/08/05 08:09:59;;;;;;;;;;;;;;;20.98;100.00;99609.41;5088868;28;19928;-90
2022/08/05 08:12:27;;;;;;;;;;;;;;;20.95;100.00;99605.50;5072118;28;19931;-95
2022/08/05 08:15:04;;;;;;;;;;;;;;;21.34;100.00;99603.53;5072779;28;19924;-95
2022/08/05 08:17:40;;;;;;;;;;;;;;;21.86;100.00;99614.22;5060066;28;19925;-94
2022/08/05 08:20:10;;;;;;;;;;;;;;;21.89;100.00;99615.28;5058598;28;19986;-93
2022/08/05 08:22:43;;;;;;;;;;;;;;;22.20;100.00;99610.75;5057913;28;19946;-94
2022/08/05 08:25:10;;;;;;;;;;;;;;;21.78;100.00;99604.47;5039388;28;20284;-93
2022/08/05 08:27:38;;;;;;;;;;;;;;;21.27;100.00;99609.56;5052804;28;19932;-91
2022/08/05 08:30:05;;;;;;;;;;;;;;;21.22;100.00;99616.69;5070222;28;19928;-89
2022/08/05 08:32:33;;;;;;;;;;;;;;;20.40;100.00;99620.34;5054122;28;19925;-89
2022/08/05 08:35:00;;;;;;;;;;;;;;;20.08;100.00;99626.66;5070440;28;19939;-93
2022/08/05 08:37:28;;;;;;;;;;;;;;;19.52;100.00;99629.97;5070308;28;19925;-93
2022/08/05 08:39:55;;;;;;;;;;;;;;;18.78;100.00;99629.44;5071253;28;19951;-92
2022/08/05 08:42:22;;;;;;;;;;;;;;;18.40;100.00;99635.38;5034118;28;19974;-86
2022/08/05 08:44:53;;;;;;;;;;;;;;;18.69;100.00;99647.16;5051638;28;19954;-90
2022/08/05 08:47:22;;;;;;;;;;;;;;;18.83;100.00;99640.13;5050583;28;19988;-92
2022/08/05 08:49:52;;;;;;;;;;;;;;;18.91;100.00;99636.56;5053599;28;19928;-92
2022/08/05 08:52:24;;;;;;;;;;;;;;;19.19;100.00;99645.94;5037915;28;20346;-94
2022/08/05 08:54:54;;;;;;;;;;;;;;;18.84;100.00;99636.84;5059315;28;20414;-93
2022/08/05 08:57:22;;;;;;;;;;;;;;;19.85;100.00;99627.31;5028923;28;19924;-91
2022/08/05 08:59:53;;;;;;;;;;;;;;;19.84;100.00;99628.56;5075915;28;20007;-93
2022/08/05 09:02:24;;;;;;;;;;;;;;;20.43;100.00;99625.84;5079109;28;19954;-92
2022/08/05 09:04:55;;;;;;;;;;;;;;;20.41;100.00;99628.38;5073282;28;19924;-90
2022/08/05 09:07:22;;;;;;;;;;;;;;;20.92;100.00;99629.16;5072582;28;19925;-89
2022/08/05 09:10:00;;;;;;;;;;;;;;;21.20;100.00;99618.47;5071059;28;19943;-88
2022/08/05 09:12:28;;;;;;;;;;;;;;;21.87;100.00;99615.78;5071750;28;20451;-88
2022/08/05 09:14:56;;;;;;;;;;;;;;;21.99;100.00;99608.25;5054064;28;20069;-91
2022/08/05 09:17:26;;;;;;;;;;;;;;;21.30;100.00;99611.44;5037315;28;19925;-88
2022/08/05 09:19:58;;;;;;;;;;;;;;;21.43;100.00;99620.53;5071647;28;19924;-87
2022/08/05 09:22:27;;;;;;;;;;;;;;;21.39;100.00;99622.75;5045625;28;19928;-91
2022/08/05 09:25:03;;;;;;;;;;;;;;;20.71;100.00;99620.88;5034975;28;20431;-88
2022/08/05 09:27:36;;;;;;;;;;;;;;;20.68;100.00;99611.25;5070281;28;20284;-91
2022/08/05 09:30:05;;;;;;;;;;;;;;;19.99;100.00;99623.84;5054938;28;19925;-89
2022/08/05 09:32:33;;;;;;;;;;;;;;;19.15;100.00;99629.09;5071134;28;20387;-88
2022/08/05 09:35:07;;;;;;;;;;;;;;;18.10;100.00;99641.72;5073422;28;19932;-86
2022/08/05 09:37:34;;;;;;;;;;;;;;;18.47;100.00;99632.28;5072802;28;19947;-87
2022/08/05 09:40:02;;;;;;;;;;;;;;;18.57;100.00;99633.88;5071639;28;19932;-85
2022/08/05 09:42:37;;;;;;;;;;;;;;;18.44;100.00;99635.22;5071602;28;19924;-84
2022/08/05 09:45:06;;;;;;;;;;;;;;;18.76;100.00;99637.59;5055282;28;19928;-83
2022/08/05 09:47:41;;;;;;;;;;;;;;;18.27;100.00;99631.78;5052935;28;20557;-85
2022/08/05 09:50:08;;;;;;;;;;;;;;;18.15;100.00;99643.97;5070829;28;20303;-83
2022/08/05 09:52:37;;;;;;;;;;;;;;;17.48;100.00;99648.44;5071349;28;19925;-83
2022/08/05 09:55:06;;;;;;;;;;;;;;;17.70;100.00;99632.31;5054553;28;19928;-86
2022/08/05 09:57:43;;;;;;;;;;;;;;;17.56;100.00;99644.91;5071600;28;19924;-83
2022/08/05 10:00:15;;;;;;;;;;;;;;;17.82;100.00;99643.59;5054391;28;20287;-90
2022/08/05 10:02:47;;;;;;;;;;;;;;;18.52;100.00;99642.19;5071765;28;20003;-87
2022/08/05 10:05:18;;;;;;;;;;;;;;;18.41;100.00;99636.94;5071837;28;20066;-85
2022/08/05 10:07:47;;;;;;;;;;;;;;;18.75;100.00;99628.31;5054599;28;20310;-86
2022/08/05 10:10:14;;;;;;;;;;;;;;;18.56;100.00;99643.63;5072141;28;19936;-87
2022/08/05 10:12:46;;;;;;;;;;;;;;;18.37;100.00;99636.31;5071895;28;19990;-81
2022/08/05 10:15:15;;;;;;;;;;;;;;;18.74;100.00;99640.88;5070764;28;19929;-81
2022/08/05 10:17:43;;;;;;;;;;;;;;;18.97;100.00;99631.06;5070906;28;19929;-82
2022/08/05 10:20:15;;;;;;;;;;;;;;;18.35;100.00;99637.97;5071762;28;19932;-80
2022/08/05 10:22:43;;;;;;;;;;;;;;;17.43;100.00;99641.31;5071511;28;19924;-88
2022/08/05 10:25:10;;;;;;;;;;;;;;;17.62;100.00;99640.25;5071873;28;19924;-83
2022/08/05 10:27:38;;;;;;;;;;;;;;;17.76;100.00;99631.28;5103723;28;20023;-81
2022/08/05 10:30:05;;;;;;;;;;;;;;;17.95;100.00;99635.03;5070041;28;20382;-80
2022/08/05 10:32:33;;;;;;;;;;;;;;;17.94;100.00;99627.81;5069608;28;20114;-80
2022/08/05 10:35:00;;;;;;;;;;;;;;;18.09;100.00;99626.03;5071102;28;20367;-82
2022/08/05 10:37:30;;;;;;;;;;;;;;;18.46;100.00;99632.72;5072402;28;19924;-89
2022/08/05 10:40:34;;;;;;;;;;;;;;;;;;;;;
2022/08/05 10:43:13;;;;;;;;;;;;;;;18.21;100.00;99639.31;5106623;27;19925;-82
2022/08/05 10:46:00;;;;;;;;;;;;;;;17.80;100.00;99651.72;5073377;28;19959;-82
2022/08/05 10:48:37;;;;;;;;;;;;;;;17.08;100.00;99670.75;5063387;28;20406;-83
2022/08/05 10:51:07;;;;;;;;;;;;;;;16.98;100.00;99671.84;5059315;28;19925;-82
2022/08/05 10:53:44;;;;;;;;;;;;;;;17.11;100.00;99678.31;5069316;28;19929;-86
2022/08/05 10:56:14;;;;;;;;;;;;;;;17.38;100.00;99677.81;5069788;28;19947;-84
2022/08/05 10:58:48;;;;;;;;;;;;;;;17.73;100.00;99671.78;5053002;28;19931;-82
2022/08/05 11:01:15;;;;;;;;;;;;;;;17.60;100.00;99671.00;5071888;28;19947;-82
2022/08/05 11:04:02;;;;;;;;;;;;;;;18.14;100.00;99658.56;5084393;28;19990;-80
2022/08/05 11:06:30;;;;;;;;;;;;;;;18.25;100.00;99671.06;5076998;28;20016;-83
2022/08/05 11:09:10;;;;;;;;;;;;;;;18.15;100.00;99660.16;5089799;28;19924;-83
2022/08/05 11:11:56;;;;;;;;;;;;;;;18.68;100.00;99665.41;5080584;28;19924;-85
2022/08/05 11:14:28;;;;;;;;;;;;;;;18.55;100.00;99650.56;5059921;28;20058;-84
2022/08/05 11:17:25;;;;;;;;;;;;;;;18.76;100.00;99651.75;5084004;28;19931;-85
2022/08/05 11:19:58;;;;;;;;;;;;;;;19.08;100.00;99657.72;5029009;28;19925;-85
2022/08/05 11:22:43;;;;;;;;;;;;;;;19.37;100.00;99652.44;5077066;28;19925;-86
2022/08/05 11:30:20;;;;;;;;;;;;;;;17.38;100.00;99678.59;5024398;28;20036;-85
2022/08/05 11:32:50;;;;;;;;;;;;;;;17.45;100.00;99684.03;5017473;28;20023;-85
2022/08/05 11:35:41;;;;;;;;;;;;;;;17.88;100.00;99677.69;5016541;28;19935;-84
2022/08/05 11:38:42;;;;;;;;;;;;;;;18.23;100.00;99682.06;5016115;28;19940;-84
2022/08/05 11:41:15;;;;;;;;;;;;;;;18.49;100.00;99665.75;5014636;28;19940;-84
2022/08/05 11:44:00;;;;;;;;;;;;;;;19.24;100.00;99677.28;5051958;28;20423;-82
2022/08/05 11:46:40;;;;;;;;;;;;;;;18.91;100.00;99678.25;5019032;28;20408;-82
2022/08/05 11:49:59;;;;;;;;;;;;;;;18.63;100.00;99688.63;5030167;28;19981;-88
2022/08/05 11:52:28;;;;;;;;;;;;;;;19.06;100.00;99682.88;5018985;28;19925;-85
2022/08/05 11:54:57;;;;;;;;;;;;;;;18.90;100.00;99674.59;5051288;28;19967;-87
2022/08/05 11:57:30;;;;;;;;;;;;;;;19.36;100.00;99673.56;5018581;28;19983;-82
2022/08/05 11:59:57;;;;;;;;;;;;;;;19.79;100.00;99671.72;5051183;28;19924;-81
2022/08/05 12:02:26;;;;;;;;;;;;;;;19.80;100.00;99678.97;5050111;28;19932;-80
2022/08/05 12:04:54;;;;;;;;;;;;;;;20.01;100.00;99672.38;5029542;28;19974;-79
2022/08/05 12:07:21;;;;;;;;;;;;;;;20.07;100.00;99681.84;5033808;28;20402;-79
2022/08/05 12:09:52;;;;;;;;;;;;;;;19.36;100.00;99681.25;5066833;28;19924;-81
2022/08/05 12:12:20;;;;;;;;;;;;;;;18.83;100.00;99680.56;5066978;28;19929;-84
2022/08/05 12:14:47;;;;;;;;;;;;;;;18.32;100.00;99696.28;5068651;28;20295;-88
2022/08/05 12:17:15;;;;;;;;;;;;;;;18.38;100.00;99691.63;5052784;28;20019;-87
2022/08/05 12:19:45;;;;;;;;;;;;;;;17.88;100.00;99691.84;5019448;28;19939;-85
2022/08/05 12:22:13;;;;;;;;;;;;;;;17.95;100.00;99698.03;5053636;28;19946;-88
2022/08/05 12:24:42;;;;;;;;;;;;;;;18.06;100.00;99700.47;5040542;28;20294;-88
2022/08/05 12:27:18;;;;;;;;;;;;;;;18.86;100.00;99693.78;5074110;28;20535;-88
2022/08/05 12:29:45;;;;;;;;;;;;;;;19.26;100.00;99674.78;5040089;28;20359;-88
2022/08/05 12:32:12;;;;;;;;;;;;;;;19.23;100.00;99666.41;5089909;28;20364;-89
2022/08/05 12:34:41;;;;;;;;;;;;;;;19.55;100.00;99680.81;5074510;28;19966;-89
2022/08/05 12:37:10;;;;;;;;;;;;;;;19.13;100.00;99676.91;5072413;28;19928;-86
2022/08/05 12:39:38;;;;;;;;;;;;;;;18.99;100.00;99680.31;5039166;28;19981;-85
2022/08/05 12:42:10;;;;;;;;;;;;;;;19.52;100.00;99703.66;5039288;28;20391;-85
2022/08/05 12:44:38;;;;;;;;;;;;;;;19.41;100.00;99698.44;5072912;28;19925;-84
2022/08/05 12:47:05;;;;;;;;;;;;;;;18.96;100.00;99700.28;5058561;28;19974;-84
2022/08/05 12:49:40;;;;;;;;;;;;;;;18.57;100.00;99706.69;5075494;28;19950;-84
2022/08/05 12:52:14;;;;;;;;;;;;;;;18.97;100.00;99699.84;5076800;28;19924;-85
2022/08/05 12:54:41;;;;;;;;;;;;;;;19.17;100.00;99705.09;5075737;28;19931;-85
2022/08/05 12:57:10;;;;;;;;;;;;;;;19.97;100.00;99709.41;5042226;28;20287;-88
2022/08/05 12:59:45;;;;;;;;;;;;;;;19.12;100.00;99709.34;5072303;28;19925;-88
2022/08/05 13:02:19;;;;;;;;;;;;;;;18.98;100.00;99731.75;5071859;28;19924;-82